createdAt,value
2022-07-28T00:01:07.725Z,21.34
2022-07-28T00:03:57.905Z,21.53
2022-07-28T00:06:27.125Z,21.64
2022-07-28T00:08:57.104Z,21.61
2022-07-28T00:11:50.392Z,21.48
2022-07-28T00:18:05.351Z,21.27
2022-07-28T00:24:52.783Z,21.20
2022-07-28T00:27:48.625Z,21.15
2022-07-28T00:34:18.847Z,21.23
2022-07-28T00:37:06.771Z,21.21
2022-07-28T00:40:12.796Z,21.17
2022-07-28T00:43:19.115Z,21.16
2022-07-28T00:46:07.724Z,21.10
2022-07-28T00:49:14.508Z,21.05
2022-07-28T00:52:21.269Z,21.08
2022-07-28T00:54:50.401Z,21.18
2022-07-28T00:57:55.731Z,21.17
2022-07-28T01:00:44.401Z,20.99
2022-07-28T01:03:33.959Z,20.94
2022-07-28T01:06:34.150Z,20.92
2022-07-28T01:09:43.669Z,20.90
2022-07-28T01:12:34.092Z,20.90
2022-07-28T01:15:42.487Z,20.95
2022-07-28T01:18:33.581Z,20.96
2022-07-28T01:21:08.617Z,20.98
2022-07-28T01:27:11.557Z,21.07
2022-07-28T01:30:40.450Z,21.02
2022-07-28T01:33:53.634Z,20.88
2022-07-28T01:36:43.427Z,20.78
2022-07-28T01:39:31.758Z,20.71
2022-07-28T01:42:28.414Z,20.69
2022-07-28T01:45:34.399Z,20.70
2022-07-28T01:48:03.425Z,20.65
2022-07-28T01:50:52.134Z,20.58
2022-07-28T01:56:46.729Z,20.37
2022-07-28T01:59:54.899Z,20.30
2022-07-28T02:02:45.996Z,20.24
2022-07-28T02:05:34.111Z,20.20
2022-07-28T02:08:05.491Z,20.17
2022-07-28T02:11:09.869Z,20.16
2022-07-28T02:14:39.125Z,20.07
2022-07-28T02:20:36.229Z,20.00
2022-07-28T02:23:06.122Z,20.06
2022-07-28T02:25:56.842Z,20.08
2022-07-28T02:29:04.762Z,19.96
2022-07-28T02:35:09.579Z,19.91
2022-07-28T02:38:00.824Z,19.90
2022-07-28T02:40:52.766Z,19.91
2022-07-28T02:46:51.385Z,20.04
2022-07-28T02:49:57.895Z,20.08
2022-07-28T02:52:46.688Z,20.09
2022-07-28T02:55:53.304Z,20.10
2022-07-28T02:59:01.406Z,20.09
2022-07-28T03:01:49.301Z,20.15
2022-07-28T03:05:14.698Z,20.20
2022-07-28T03:08:57.718Z,20.32
2022-07-28T03:12:11.862Z,20.31
2022-07-28T03:14:41.602Z,20.31
2022-07-28T03:17:12.667Z,20.33
2022-07-28T03:22:28.506Z,20.34
2022-07-28T03:24:59.510Z,20.28
2022-07-28T03:27:50.314Z,20.24
2022-07-28T03:30:39.438Z,20.16
2022-07-28T03:33:45.626Z,19.96
2022-07-28T03:36:55.411Z,19.85
2022-07-28T03:39:47.577Z,19.85
2022-07-28T03:48:49.290Z,19.99
2022-07-28T03:51:36.038Z,20.00
2022-07-28T03:54:05.725Z,20.05
2022-07-28T03:56:34.914Z,20.09
2022-07-28T03:59:03.900Z,20.14
2022-07-28T04:01:50.990Z,20.17
2022-07-28T04:04:57.777Z,20.21
2022-07-28T04:07:46.247Z,20.22
2022-07-28T04:11:09.770Z,20.21
2022-07-28T04:13:57.643Z,20.31
2022-07-28T04:17:02.700Z,20.53
2022-07-28T04:19:31.760Z,20.80
2022-07-28T04:28:16.594Z,21.88
2022-07-28T04:31:03.897Z,22.20
2022-07-28T04:33:32.654Z,22.59
2022-07-28T04:39:44.128Z,23.39
2022-07-28T04:45:00.567Z,24.33
2022-07-28T04:52:08.119Z,25.29
2022-07-28T04:54:55.401Z,25.63
2022-07-28T05:04:12.847Z,26.90
2022-07-28T05:07:00.705Z,27.12
2022-07-28T05:10:13.400Z,27.28
2022-07-28T05:18:53.557Z,27.53
2022-07-28T05:21:41.290Z,27.63
2022-07-28T05:24:28.820Z,27.53
2022-07-28T05:27:33.975Z,27.59
2022-07-28T05:30:21.490Z,27.80
2022-07-28T05:36:17.335Z,28.01
2022-07-28T05:41:52.398Z,28.36
2022-07-28T05:44:21.454Z,28.77
2022-07-28T05:50:51.915Z,29.84
2022-07-28T05:53:21.047Z,30.41
2022-07-28T05:59:16.349Z,31.25
2022-07-28T06:02:22.151Z,31.47
2022-07-28T06:05:11.891Z,31.68
2022-07-28T06:08:00.123Z,31.80
2022-07-28T06:11:01.807Z,32.22
2022-07-28T06:16:55.471Z,32.47
2022-07-28T06:19:43.962Z,32.79
2022-07-28T06:22:42.813Z,33.07
2022-07-28T06:28:40.153Z,33.65
2022-07-28T06:31:27.312Z,33.95
2022-07-28T06:33:56.851Z,33.69
2022-07-28T06:37:04.758Z,33.60
2022-07-28T06:40:11.257Z,33.79
2022-07-28T06:49:50.429Z,34.78
2022-07-28T06:53:33.646Z,35.07
2022-07-28T06:56:57.627Z,35.26
2022-07-28T06:59:44.885Z,35.53
2022-07-28T07:05:38.104Z,35.93
2022-07-28T07:08:25.841Z,36.26
2022-07-28T07:10:56.660Z,36.14
2022-07-28T07:13:43.740Z,35.79
2022-07-28T07:16:12.480Z,35.76
2022-07-28T07:19:00.083Z,35.94
2022-07-28T07:22:12.338Z,35.99
2022-07-28T07:24:41.516Z,35.79
2022-07-28T07:27:31.623Z,35.85
2022-07-28T07:30:00.237Z,36.17
2022-07-28T07:32:47.541Z,36.46
2022-07-28T07:35:34.603Z,36.53
2022-07-28T07:41:45.802Z,36.83
2022-07-28T07:45:28.431Z,36.63
2022-07-28T07:47:57.650Z,36.47
2022-07-28T07:51:04.846Z,36.21
2022-07-28T07:53:52.314Z,35.70
2022-07-28T07:56:39.791Z,35.99
2022-07-28T07:59:26.641Z,36.49
2022-07-28T08:02:13.986Z,36.98
2022-07-28T08:05:03.311Z,37.39
2022-07-28T08:07:32.595Z,37.48
2022-07-28T08:13:27.067Z,37.68
2022-07-28T08:20:14.465Z,37.72
2022-07-28T08:22:50.422Z,37.47
2022-07-28T08:25:36.838Z,37.29
2022-07-28T08:28:24.001Z,36.96
2022-07-28T08:31:10.878Z,36.89
2022-07-28T08:33:58.791Z,36.80
2022-07-28T08:36:46.058Z,36.28
2022-07-28T08:39:15.229Z,36.03
2022-07-28T08:42:07.001Z,36.20
2022-07-28T08:45:04.251Z,36.43
2022-07-28T08:48:48.129Z,36.22
2022-07-28T08:51:35.589Z,36.38
2022-07-28T08:54:05.914Z,36.24
2022-07-28T08:57:35.063Z,36.03
2022-07-28T09:00:06.231Z,35.92
2022-07-28T09:03:13.113Z,35.92
2022-07-28T09:06:18.487Z,35.81
2022-07-28T09:09:07.124Z,36.04
2022-07-28T09:12:13.051Z,35.94
2022-07-28T09:15:20.612Z,36.17
2022-07-28T09:18:08.216Z,36.43
2022-07-28T09:24:02.481Z,36.87
2022-07-28T09:26:31.297Z,37.12
2022-07-28T09:29:18.172Z,37.21
2022-07-28T09:32:51.224Z,36.88
2022-07-28T09:35:43.318Z,36.96
2022-07-28T09:38:34.236Z,37.00
2022-07-28T09:41:40.081Z,37.12
2022-07-28T09:44:28.380Z,37.15
2022-07-28T09:47:15.507Z,36.86
2022-07-28T09:50:02.332Z,37.31
2022-07-28T09:57:10.657Z,38.47
2022-07-28T10:07:09.625Z,38.97
2022-07-28T10:10:20.309Z,39.35
2022-07-28T10:13:26.925Z,39.55
2022-07-28T10:16:13.184Z,39.26
2022-07-28T10:18:41.913Z,38.70
2022-07-28T10:21:47.434Z,38.90
2022-07-28T10:24:36.342Z,38.67
2022-07-28T10:27:25.716Z,38.48
2022-07-28T10:30:15.267Z,38.58
2022-07-28T10:33:02.850Z,38.95
2022-07-28T10:42:22.230Z,39.90
2022-07-28T10:48:16.659Z,39.56
2022-07-28T10:50:48.774Z,39.44
2022-07-28T10:53:30.404Z,39.75
2022-07-28T10:57:08.182Z,39.85
2022-07-28T11:00:24.475Z,39.84
2022-07-28T11:02:58.211Z,39.52
2022-07-28T11:12:33.610Z,40.46
2022-07-28T11:21:17.454Z,40.26
2022-07-28T11:24:05.787Z,40.36
2022-07-28T11:27:48.005Z,39.88
2022-07-28T11:30:52.397Z,39.70
2022-07-28T11:34:18.273Z,39.97
2022-07-28T11:37:02.344Z,40.08
2022-07-28T11:39:51.420Z,40.14
2022-07-28T11:42:51.592Z,39.99
2022-07-28T11:45:59.820Z,39.35
2022-07-28T11:52:30.808Z,38.38
2022-07-28T11:55:17.449Z,38.47
2022-07-28T12:03:54.965Z,38.27
2022-07-28T12:07:02.159Z,37.81
2022-07-28T12:09:41.363Z,37.75
2022-07-28T12:12:11.276Z,37.90
2022-07-28T12:15:06.723Z,37.35
2022-07-28T12:18:30.399Z,36.84
2022-07-28T12:21:35.135Z,36.62
2022-07-28T12:24:21.630Z,36.67
2022-07-28T12:27:31.959Z,36.60
2022-07-28T12:30:28.723Z,36.47
2022-07-28T12:33:29.720Z,36.39
2022-07-28T12:36:00.421Z,36.70
2022-07-28T12:39:12.802Z,37.23
2022-07-28T12:42:19.012Z,37.75
2022-07-28T12:45:08.472Z,37.76
2022-07-28T12:47:57.118Z,37.73
2022-07-28T12:51:49.381Z,38.21
2022-07-28T12:55:12.510Z,38.18
2022-07-28T12:58:18.184Z,37.26
2022-07-28T13:03:52.004Z,36.20
2022-07-28T13:06:41.460Z,36.33
2022-07-28T13:12:20.212Z,36.97
2022-07-28T13:14:52.245Z,37.11
2022-07-28T13:18:16.519Z,37.24
2022-07-28T13:27:02.605Z,37.75
2022-07-28T13:33:00.106Z,37.29
2022-07-28T13:36:24.802Z,37.21
2022-07-28T13:39:31.327Z,36.39
2022-07-28T13:42:19.171Z,36.17
2022-07-28T13:45:42.725Z,36.33
2022-07-28T13:48:57.714Z,36.48
2022-07-28T13:51:28.447Z,36.21
2022-07-28T13:54:15.161Z,35.99
2022-07-28T13:57:02.230Z,35.88
2022-07-28T13:59:49.954Z,36.13
2022-07-28T14:03:14.110Z,36.31
2022-07-28T14:06:38.061Z,36.24
2022-07-28T14:12:13.568Z,35.57
2022-07-28T14:14:48.513Z,35.49
2022-07-28T14:17:44.751Z,35.37
2022-07-28T14:21:27.535Z,35.14
2022-07-28T14:23:56.605Z,35.01
2022-07-28T14:26:43.791Z,34.74
2022-07-28T14:29:31.685Z,34.35
2022-07-28T14:32:18.652Z,33.99
2022-07-28T14:34:47.369Z,33.35
2022-07-28T14:37:17.144Z,32.94
2022-07-28T14:39:46.187Z,32.67
2022-07-28T14:42:14.916Z,32.52
2022-07-28T14:45:05.060Z,32.23
2022-07-28T14:54:03.460Z,31.62
2022-07-28T14:56:32.231Z,31.57
2022-07-28T14:59:19.429Z,31.55
2022-07-28T15:02:29.669Z,31.72
2022-07-28T15:05:34.804Z,31.99
2022-07-28T15:08:27.989Z,32.16
2022-07-28T15:10:58.488Z,32.22
2022-07-28T15:14:23.047Z,31.74
2022-07-28T15:17:10.669Z,31.25
2022-07-28T15:20:37.556Z,30.91
2022-07-28T15:23:08.359Z,29.93
2022-07-28T15:25:56.041Z,28.80
2022-07-28T15:33:03.545Z,26.79
2022-07-28T15:35:56.503Z,26.52
2022-07-28T15:39:26.344Z,26.20
2022-07-28T15:42:36.421Z,25.71
2022-07-28T15:47:58.359Z,24.65
2022-07-28T15:51:03.090Z,23.67
2022-07-28T15:54:09.494Z,22.57
2022-07-28T15:56:38.638Z,22.03
2022-07-28T15:59:26.776Z,22.03
2022-07-28T16:05:21.985Z,22.24
2022-07-28T16:08:08.951Z,22.33
2022-07-28T16:11:13.882Z,22.40
2022-07-28T16:14:20.035Z,22.64
2022-07-28T16:17:06.668Z,22.45
2022-07-28T16:19:48.593Z,21.98
2022-07-28T16:22:40.165Z,21.83
2022-07-28T16:25:46.130Z,21.84
2022-07-28T16:28:15.826Z,21.96
2022-07-28T16:44:25.411Z,22.31
2022-07-28T16:49:46.021Z,22.58
2022-07-28T16:52:51.448Z,22.67
2022-07-28T16:59:03.732Z,22.97
2022-07-28T17:01:51.502Z,23.24
2022-07-28T17:04:57.524Z,23.44
2022-07-28T17:10:31.983Z,23.62
2022-07-28T17:13:00.979Z,23.68
2022-07-28T17:15:48.850Z,23.78
2022-07-28T17:19:11.809Z,23.90
2022-07-28T17:21:40.780Z,24.12
2022-07-28T17:27:38.549Z,24.47
2022-07-28T17:34:28.928Z,24.56
2022-07-28T17:37:00.784Z,24.43
2022-07-28T17:39:48.359Z,24.28
2022-07-28T17:42:54.165Z,24.17
2022-07-28T17:45:26.556Z,24.12
2022-07-28T17:48:31.749Z,24.22
2022-07-28T17:55:02.055Z,23.64
2022-07-28T17:58:29.903Z,23.31
2022-07-28T18:01:34.824Z,23.18
2022-07-28T18:04:21.800Z,23.11
2022-07-28T18:07:30.293Z,22.94
2022-07-28T18:10:36.116Z,22.89
2022-07-28T18:13:25.172Z,22.89
2022-07-28T18:15:54.317Z,22.97
2022-07-28T18:19:19.029Z,22.99
2022-07-28T18:23:00.393Z,23.17
2022-07-28T18:26:24.091Z,23.33
2022-07-28T18:29:11.017Z,23.42
2022-07-28T18:32:00.107Z,23.51
2022-07-28T18:34:29.428Z,23.48
2022-07-28T18:37:17.195Z,23.49
2022-07-28T18:39:46.190Z,23.58
2022-07-28T18:42:15.656Z,23.66
2022-07-28T18:44:44.350Z,23.72
2022-07-28T18:47:13.199Z,23.77
2022-07-28T18:50:00.629Z,23.75
2022-07-28T18:53:05.092Z,23.69
2022-07-28T18:55:52.230Z,23.65
2022-07-28T18:58:39.916Z,23.57
2022-07-28T19:10:27.398Z,23.39
2022-07-28T19:13:00.239Z,23.35
2022-07-28T19:16:05.503Z,23.29
2022-07-28T19:18:34.318Z,23.27
2022-07-28T19:21:03.348Z,23.24
2022-07-28T19:24:09.083Z,23.16
2022-07-28T19:30:36.826Z,22.98
2022-07-28T19:33:29.467Z,23.00
2022-07-28T19:36:17.377Z,22.99
2022-07-28T19:39:05.130Z,22.94
2022-07-28T19:42:09.758Z,22.90
2022-07-28T19:45:15.072Z,22.89
2022-07-28T19:48:03.314Z,22.75
2022-07-28T19:51:09.002Z,22.70
2022-07-28T19:53:37.991Z,22.64
2022-07-28T19:56:45.673Z,22.60
2022-07-28T19:59:52.209Z,22.54
2022-07-28T20:05:45.924Z,22.55
2022-07-28T20:15:39.403Z,22.55
2022-07-28T20:18:27.099Z,22.64
2022-07-28T20:24:39.029Z,22.73
2022-07-28T20:27:44.205Z,22.49
2022-07-28T20:33:38.978Z,21.58
2022-07-28T20:36:30.042Z,21.42
2022-07-28T20:39:07.854Z,21.34
2022-07-28T20:41:50.658Z,21.29
2022-07-28T20:45:13.735Z,21.26
2022-07-28T20:53:57.944Z,20.86
2022-07-28T20:59:32.678Z,20.56
2022-07-28T21:12:13.200Z,20.42
2022-07-28T21:15:20.208Z,20.39
2022-07-28T21:24:58.923Z,20.86
2022-07-28T21:28:04.848Z,21.07
2022-07-28T21:31:09.979Z,21.53
2022-07-28T21:33:57.508Z,21.95
2022-07-28T21:40:46.678Z,22.20
2022-07-28T21:44:09.771Z,22.30
2022-07-28T21:47:00.274Z,22.33
2022-07-28T21:49:47.349Z,22.36
2022-07-28T21:52:37.991Z,22.36
2022-07-28T21:58:33.044Z,21.97
2022-07-28T22:01:23.539Z,21.72
2022-07-28T22:04:29.247Z,21.39
2022-07-28T22:07:35.115Z,21.05
2022-07-28T22:17:29.363Z,20.30
2022-07-28T22:20:35.969Z,20.41
2022-07-28T22:23:05.134Z,20.52
2022-07-28T22:26:23.038Z,20.66
2022-07-28T22:29:28.399Z,20.85
2022-07-28T22:35:23.354Z,21.11
2022-07-28T22:38:11.122Z,21.18
2022-07-28T22:41:17.009Z,21.21
2022-07-28T22:44:06.961Z,21.03
2022-07-28T22:46:36.064Z,20.79
2022-07-28T22:51:52.620Z,20.52
2022-07-28T22:54:21.395Z,20.47
2022-07-28T22:57:27.922Z,20.48
2022-07-28T22:59:57.839Z,20.44
2022-07-28T23:02:28.141Z,20.33
2022-07-28T23:05:37.644Z,20.24
2022-07-28T23:08:26.340Z,20.11
2022-07-28T23:11:32.909Z,20.10
2022-07-28T23:14:21.369Z,20.21
2022-07-28T23:17:09.402Z,20.34
2022-07-28T23:19:39.220Z,20.35
2022-07-28T23:25:33.116Z,20.34
2022-07-28T23:28:21.059Z,20.33
2022-07-28T23:31:27.504Z,20.33
2022-07-28T23:34:16.569Z,20.34
2022-07-28T23:37:05.402Z,20.33
2022-07-28T23:39:34.979Z,20.29
2022-07-28T23:42:41.344Z,20.17
2022-07-28T23:46:25.046Z,20.01
2022-07-28T23:49:31.967Z,20.04
2022-07-28T23:52:01.687Z,20.12
2022-07-28T23:54:31.816Z,20.20
2022-07-28T23:57:02.512Z,20.29
